Time;durP1;ratioP1;P1;durP2;ratioP2;P2;SDS_P1;SDS_P2;PMS_P1;PMS_P2;Temp;Humidity;BMP_temperature;BMP_pressure;BME280_temperature;BME280_humidity;BME280_pressure;Samples;Min_cycle;Max_cycle;Signal;HPM_P1;HPM_P2
2021/05/20 00:00:16;;;;;;;16.50;9.57;;;9.40;99.90;;;;;;5039750;28;20451;-83
2021/05/20 00:02:42;;;;;;;15.90;8.13;;;9.50;99.90;;;;;;5040213;28;20457;-84
2021/05/20 00:05:11;;;;;;;15.83;9.50;;;9.60;99.90;;;;;;5039802;28;20527;-84
2021/05/20 00:07:38;;;;;;;16.13;8.70;;;9.60;99.90;;;;;;5039959;28;20452;-85
2021/05/20 00:10:05;;;;;;;13.93;8.77;;;9.70;99.90;;;;;;5039885;28;21002;-84
2021/05/20 00:12:32;;;;;;;13.87;7.77;;;9.80;99.90;;;;;;5039910;28;20470;-84
2021/05/20 00:14:59;;;;;;;14.13;8.13;;;9.80;99.90;;;;;;5040081;28;20453;-84
2021/05/20 00:17:26;;;;;;;15.10;8.70;;;9.90;99.90;;;;;;5041043;28;20441;-85
2021/05/20 00:19:52;;;;;;;15.10;9.20;;;9.90;99.90;;;;;;5040124;28;20475;-84
2021/05/20 00:22:18;;;;;;;14.87;9.20;;;10.00;99.90;;;;;;5039232;28;20460;-82
2021/05/20 00:24:45;;;;;;;14.07;9.23;;;10.00;99.90;;;;;;5040196;28;20572;-85
2021/05/20 00:27:11;;;;;;;14.00;9.57;;;10.00;99.90;;;;;;5040096;28;20535;-85
2021/05/20 00:29:37;;;;;;;15.20;9.73;;;10.00;99.90;;;;;;5038996;28;20631;-84
2021/05/20 00:32:05;;;;;;;13.73;8.70;;;10.00;99.90;;;;;;5038644;28;20457;-84
2021/05/20 00:34:32;;;;;;;14.00;9.37;;;10.00;99.90;;;;;;5039630;28;20459;-83
2021/05/20 00:36:58;;;;;;;14.60;8.63;;;10.00;99.90;;;;;;5039893;28;20455;-84
2021/05/20 00:39:25;;;;;;;16.27;10.70;;;9.90;99.90;;;;;;5039195;28;20473;-83
2021/05/20 00:41:51;;;;;;;17.00;10.50;;;9.80;99.90;;;;;;5038990;28;20449;-84
2021/05/20 00:44:17;;;;;;;17.43;10.80;;;9.70;99.90;;;;;;5039701;28;20460;-83
2021/05/20 00:46:43;;;;;;;17.93;11.40;;;9.70;99.90;;;;;;5039280;28;20488;-83
2021/05/20 00:49:11;;;;;;;15.10;10.23;;;9.60;99.90;;;;;;5039461;28;20491;-83
2021/05/20 00:51:37;;;;;;;17.57;11.50;;;9.40;99.90;;;;;;5038689;28;20480;-82
2021/05/20 00:54:05;;;;;;;15.40;9.53;;;9.40;99.90;;;;;;5037920;28;20448;-83
2021/05/20 00:56:33;;;;;;;15.27;9.57;;;9.40;99.90;;;;;;5039944;28;20448;-83
2021/05/20 00:59:00;;;;;;;15.10;9.53;;;9.30;99.90;;;;;;5038798;28;20484;-84
2021/05/20 01:01:27;;;;;;;14.87;10.13;;;9.20;99.90;;;;;;5038538;28;20460;-84
2021/05/20 01:03:53;;;;;;;21.10;11.20;;;9.20;99.90;;;;;;5041040;28;20477;-84
2021/05/20 01:06:20;;;;;;;19.17;12.30;;;9.30;99.90;;;;;;5039896;28;20542;-85
2021/05/20 01:08:46;;;;;;;18.20;11.87;;;9.30;99.90;;;;;;5040323;28;20556;-85
2021/05/20 01:11:13;;;;;;;21.80;13.50;;;9.40;99.90;;;;;;5039412;28;20453;-84
2021/05/20 01:13:39;;;;;;;19.50;13.27;;;9.40;99.90;;;;;;5040113;28;20444;-85
2021/05/20 01:16:10;;;;;;;21.27;14.50;;;9.40;99.90;;;;;;5039747;28;20938;-84
2021/05/20 01:18:36;;;;;;;21.67;14.03;;;9.50;99.90;;;;;;5039933;28;20481;-85
2021/05/20 01:21:04;;;;;;;21.77;14.67;;;9.50;99.90;;;;;;5040237;28;20449;-84
2021/05/20 01:23:30;;;;;;;21.00;13.97;;;9.60;99.90;;;;;;5039787;28;20455;-84
2021/05/20 01:26:02;;;;;;;21.70;13.67;;;9.60;99.90;;;;;;5040212;28;20479;-86
2021/05/20 01:28:30;;;;;;;19.47;13.10;;;9.60;99.90;;;;;;5040641;28;20505;-85
2021/05/20 01:30:56;;;;;;;22.57;14.37;;;9.70;99.90;;;;;;5039595;28;20492;-84
2021/05/20 01:33:23;;;;;;;20.77;13.83;;;9.70;99.90;;;;;;5040020;28;20487;-84
2021/05/20 01:35:49;;;;;;;22.83;15.10;;;9.70;99.90;;;;;;5040054;28;20517;-83
2021/05/20 01:41:04;;;;;;;20.57;14.40;;;9.70;99.90;;;;;;5038673;28;20460;-82
2021/05/20 01:43:31;;;;;;;22.10;14.10;;;9.80;99.90;;;;;;5037605;28;20459;-85
2021/05/20 01:45:59;;;;;;;21.00;14.33;;;9.80;99.90;;;;;;5043242;28;20889;-84
2021/05/20 01:48:25;;;;;;;23.10;15.60;;;9.90;99.90;;;;;;5038193;28;20488;-83
2021/05/20 01:50:52;;;;;;;23.53;16.43;;;9.90;99.90;;;;;;5037823;28;20453;-85
2021/05/20 01:53:19;;;;;;;23.30;16.00;;;10.00;99.90;;;;;;5037190;28;20881;-84
2021/05/20 01:55:49;;;;;;;23.10;15.37;;;10.00;99.90;;;;;;5038597;28;20467;-84
2021/05/20 01:58:15;;;;;;;23.97;16.40;;;10.00;99.90;;;;;;5038524;28;20473;-84
2021/05/20 02:00:42;;;;;;;26.37;17.67;;;10.10;99.90;;;;;;5039022;28;20455;-85
2021/05/20 02:03:08;;;;;;;24.67;16.13;;;10.00;99.90;;;;;;5037389;28;20822;-84
2021/05/20 02:05:35;;;;;;;26.37;17.37;;;10.10;99.90;;;;;;5036317;28;20488;-86
2021/05/20 02:08:01;;;;;;;24.73;17.30;;;10.10;99.90;;;;;;5037211;28;20480;-84
2021/05/20 02:10:28;;;;;;;24.60;16.97;;;10.10;99.90;;;;;;5038030;28;20465;-84
2021/05/20 02:12:55;;;;;;;26.77;18.37;;;10.20;99.90;;;;;;5036719;28;20449;-84
2021/05/20 02:15:21;;;;;;;33.07;20.37;;;10.20;99.90;;;;;;5037397;28;20540;-84
2021/05/20 02:17:47;;;;;;;27.37;18.40;;;10.30;99.90;;;;;;5037338;28;20455;-84
2021/05/20 02:20:15;;;;;;;26.30;18.90;;;10.30;99.90;;;;;;5037248;28;20463;-84
2021/05/20 02:22:41;;;;;;;27.20;18.23;;;10.30;99.90;;;;;;5036772;28;20452;-84
2021/05/20 02:25:09;;;;;;;32.73;21.60;;;10.40;99.90;;;;;;5037095;28;20488;-85
2021/05/20 02:27:36;;;;;;;33.53;21.87;;;10.50;99.90;;;;;;5036399;28;20476;-84
2021/05/20 02:30:05;;;;;;;31.47;21.40;;;10.50;99.90;;;;;;5037271;28;21061;-84
2021/05/20 02:32:31;;;;;;;34.50;22.53;;;10.60;99.90;;;;;;5036431;28;20868;-84
2021/05/20 02:34:58;;;;;;;29.43;20.90;;;10.60;99.90;;;;;;5037134;28;20468;-83
2021/05/20 02:37:24;;;;;;;31.90;22.13;;;10.60;99.90;;;;;;5037401;28;20463;-84
2021/05/20 02:39:50;;;;;;;34.73;22.80;;;10.70;99.90;;;;;;5036709;28;21063;-84
2021/05/20 02:42:17;;;;;;;32.70;21.93;;;10.60;99.90;;;;;;5035862;28;20910;-83
2021/05/20 02:44:44;;;;;;;31.07;22.20;;;10.70;99.90;;;;;;5037085;28;20512;-84
2021/05/20 02:47:10;;;;;;;34.20;22.53;;;10.70;99.90;;;;;;5037314;28;20452;-83
2021/05/20 02:49:37;;;;;;;39.20;23.53;;;10.80;99.90;;;;;;5036331;28;20568;-84
2021/05/20 02:52:03;;;;;;;40.47;25.30;;;10.80;99.90;;;;;;5036571;28;20461;-84
2021/05/20 02:54:30;;;;;;;47.50;27.10;;;10.80;99.90;;;;;;5037327;28;20822;-84
2021/05/20 02:56:56;;;;;;;41.77;24.83;;;10.80;99.90;;;;;;5036503;28;21163;-84
2021/05/20 02:59:22;;;;;;;56.77;31.00;;;10.80;99.90;;;;;;5037127;28;20546;-84
2021/05/20 03:01:50;;;;;;;58.87;30.43;;;10.80;99.90;;;;;;5035532;28;20460;-83
2021/05/20 03:04:16;;;;;;;65.03;34.00;;;10.80;99.90;;;;;;5035933;28;20452;-84
2021/05/20 03:06:42;;;;;;;75.20;35.90;;;10.80;99.90;;;;;;5035674;28;20457;-84
2021/05/20 03:09:10;;;;;;;72.13;34.17;;;10.80;99.90;;;;;;5036032;28;20478;-84
2021/05/20 03:11:37;;;;;;;74.97;34.33;;;10.70;99.90;;;;;;5035855;28;20825;-83
2021/05/20 03:14:04;;;;;;;65.97;34.33;;;10.70;99.90;;;;;;5036588;28;20840;-82
2021/05/20 03:16:30;;;;;;;83.87;39.47;;;10.70;99.90;;;;;;5035289;28;20457;-84
2021/05/20 03:18:57;;;;;;;75.50;35.47;;;10.70;99.90;;;;;;5036808;28;20480;-84
2021/05/20 03:21:26;;;;;;;72.07;34.60;;;10.70;99.90;;;;;;5035714;28;20456;-83
2021/05/20 03:23:53;;;;;;;67.30;34.63;;;10.70;99.90;;;;;;5037341;28;20453;-85
2021/05/20 03:26:20;;;;;;;70.07;35.27;;;10.70;99.90;;;;;;5035940;28;20786;-84
2021/05/20 03:28:46;;;;;;;69.50;34.87;;;10.70;99.90;;;;;;5036513;28;20483;-83
2021/05/20 03:31:12;;;;;;;67.53;35.47;;;10.70;99.90;;;;;;5035277;28;20461;-83
2021/05/20 03:33:41;;;;;;;60.93;31.67;;;10.70;99.90;;;;;;5036241;28;20480;-83
2021/05/20 03:36:08;;;;;;;74.37;38.53;;;10.70;99.90;;;;;;5035596;28;20452;-83
2021/05/20 03:38:35;;;;;;;95.37;42.33;;;10.70;99.90;;;;;;5036215;28;20472;-83
2021/05/20 03:41:01;;;;;;;80.43;36.97;;;10.60;99.90;;;;;;5037975;28;20540;-81
2021/05/20 03:43:30;;;;;;;66.37;34.07;;;10.60;99.90;;;;;;5036064;28;20886;-83
2021/05/20 03:45:57;;;;;;;84.83;39.53;;;10.60;99.90;;;;;;5036157;28;20542;-84
2021/05/20 03:48:23;;;;;;;76.40;37.80;;;10.50;99.90;;;;;;5035516;28;20484;-83
2021/05/20 03:50:49;;;;;;;72.77;35.90;;;10.50;99.90;;;;;;5035422;28;20979;-81
2021/05/20 03:53:16;;;;;;;73.63;35.20;;;10.50;99.90;;;;;;5035885;28;20882;-83
2021/05/20 03:55:43;;;;;;;74.83;37.53;;;10.60;99.90;;;;;;5036017;28;20463;-83
2021/05/20 03:58:09;;;;;;;77.67;39.57;;;10.60;99.90;;;;;;5031993;28;20468;-83
2021/05/20 04:00:36;;;;;;;71.13;36.27;;;10.50;99.90;;;;;;5024337;28;20507;-83
2021/05/20 04:03:02;;;;;;;71.77;36.87;;;10.50;99.90;;;;;;5036246;28;20479;-83
2021/05/20 04:05:29;;;;;;;75.70;35.43;;;10.50;99.90;;;;;;5036186;28;20495;-83
2021/05/20 04:07:55;;;;;;;79.43;37.77;;;10.50;99.90;;;;;;5035425;28;21161;-84
2021/05/20 04:10:24;;;;;;;73.97;35.50;;;10.60;99.90;;;;;;5035742;28;20456;-83
2021/05/20 04:12:50;;;;;;;69.13;35.87;;;10.50;99.90;;;;;;5035345;28;20822;-84
2021/05/20 04:15:17;;;;;;;78.20;37.20;;;10.50;99.90;;;;;;5035481;28;20455;-84
2021/05/20 04:17:44;;;;;;;70.57;33.47;;;10.60;99.90;;;;;;5035908;28;20445;-83
2021/05/20 04:20:11;;;;;;;72.97;33.47;;;10.70;99.90;;;;;;5036022;28;20460;-83
2021/05/20 04:22:37;;;;;;;68.73;34.17;;;10.80;99.90;;;;;;5035511;28;20456;-83
2021/05/20 04:25:05;;;;;;;62.10;31.30;;;10.80;99.90;;;;;;5036293;28;20575;-84
2021/05/20 04:27:32;;;;;;;65.60;35.23;;;10.90;99.90;;;;;;5036746;28;20957;-83
2021/05/20 04:29:58;;;;;;;73.50;36.60;;;10.90;99.90;;;;;;5039252;28;20915;-83
2021/05/20 04:32:24;;;;;;;71.27;33.60;;;11.00;99.90;;;;;;5039506;28;20547;-83
2021/05/20 04:34:51;;;;;;;61.57;32.53;;;11.00;99.90;;;;;;5039972;28;20448;-83
2021/05/20 04:37:17;;;;;;;70.53;35.53;;;11.00;99.90;;;;;;5039127;28;20841;-84
2021/05/20 04:39:43;;;;;;;66.83;35.10;;;11.10;99.90;;;;;;5040098;28;20567;-84
2021/05/20 04:42:09;;;;;;;64.90;36.73;;;11.10;99.90;;;;;;5039096;28;20463;-84
2021/05/20 04:44:37;;;;;;;66.33;33.07;;;11.00;99.90;;;;;;5039970;28;20456;-84
2021/05/20 04:47:03;;;;;;;66.67;35.50;;;11.10;99.90;;;;;;5040774;28;20539;-84
2021/05/20 04:49:29;;;;;;;73.53;36.30;;;11.10;99.90;;;;;;5070796;23;20582;-79
2021/05/20 04:51:56;;;;;;;68.17;35.60;;;11.10;99.90;;;;;;5054496;28;20452;-80
2021/05/20 04:54:22;;;;;;;62.37;34.17;;;11.10;99.90;;;;;;5055210;28;21046;-80
2021/05/20 04:56:48;;;;;;;72.60;35.70;;;11.20;99.90;;;;;;5055033;28;20456;-79
2021/05/20 04:59:15;;;;;;;61.63;33.00;;;11.20;99.90;;;;;;5055456;28;20448;-80
2021/05/20 05:01:42;;;;;;;72.57;37.00;;;11.20;99.90;;;;;;5054746;28;20567;-79
2021/05/20 05:04:08;;;;;;;58.13;34.20;;;11.20;99.90;;;;;;5054889;28;20443;-80
2021/05/20 05:06:34;;;;;;;55.23;33.17;;;11.20;99.90;;;;;;5054909;28;20494;-79
2021/05/20 05:09:01;;;;;;;95.73;40.70;;;11.20;99.90;;;;;;5054896;28;20475;-80
2021/05/20 05:11:27;;;;;;;63.70;32.00;;;11.20;99.90;;;;;;5053971;28;20530;-80
2021/05/20 05:13:53;;;;;;;64.70;31.20;;;11.30;99.90;;;;;;5055174;28;20451;-79
2021/05/20 05:16:19;;;;;;;61.67;31.97;;;11.30;99.90;;;;;;5055666;28;20816;-81
2021/05/20 05:18:47;;;;;;;62.83;33.43;;;11.40;99.90;;;;;;5056252;28;20476;-81
2021/05/20 05:21:13;;;;;;;66.70;33.10;;;11.30;99.90;;;;;;5055207;28;20450;-80
2021/05/20 05:23:40;;;;;;;69.47;34.10;;;11.40;99.90;;;;;;5055947;28;20455;-81
2021/05/20 05:26:06;;;;;;;75.53;38.83;;;11.40;99.90;;;;;;5055976;28;20498;-80
2021/05/20 05:28:33;;;;;;;69.17;34.57;;;11.40;99.90;;;;;;5055752;28;20482;-80
2021/05/20 05:30:59;;;;;;;67.03;33.13;;;11.40;99.90;;;;;;5055240;28;20447;-80
2021/05/20 05:33:25;;;;;;;87.00;42.33;;;11.50;99.90;;;;;;5054838;28;20545;-80
2021/05/20 05:35:53;;;;;;;70.37;38.30;;;11.40;99.90;;;;;;5055371;28;20806;-80
2021/05/20 05:38:19;;;;;;;69.13;36.33;;;11.30;99.90;;;;;;5052915;28;20476;-84
2021/05/20 05:40:45;;;;;;;70.87;33.60;;;11.30;99.90;;;;;;5057613;28;20475;-83
2021/05/20 05:43:11;;;;;;;73.63;34.00;;;11.40;99.90;;;;;;5059973;28;20455;-79
2021/05/20 05:45:38;;;;;;;63.33;30.97;;;11.40;99.90;;;;;;5058900;28;20574;-78
2021/05/20 05:48:07;;;;;;;66.73;34.80;;;11.50;99.90;;;;;;5053960;28;20462;-80
2021/05/20 05:50:33;;;;;;;69.60;37.70;;;11.60;99.90;;;;;;5037450;28;20467;-80
2021/05/20 05:53:03;;;;;;;64.90;34.40;;;11.60;99.90;;;;;;5049385;28;20458;-80
2021/05/20 05:55:29;;;;;;;66.43;34.67;;;11.70;99.90;;;;;;5041087;28;20460;-80
2021/05/20 05:57:55;;;;;;;61.47;32.03;;;11.90;99.90;;;;;;5047156;28;20803;-81
2021/05/20 06:00:23;;;;;;;57.07;30.97;;;12.00;99.90;;;;;;5052577;28;20480;-81
2021/05/20 06:02:49;;;;;;;64.40;32.50;;;12.20;99.90;;;;;;5052542;28;20447;-80
2021/05/20 06:05:15;;;;;;;61.43;29.70;;;12.30;99.90;;;;;;5052485;28;21041;-81
2021/05/20 06:07:43;;;;;;;71.87;35.50;;;12.30;99.90;;;;;;5057219;28;20456;-82
2021/05/20 06:10:12;;;;;;;59.83;30.73;;;12.30;99.90;;;;;;5057254;28;20472;-80
2021/05/20 06:12:38;;;;;;;60.43;30.90;;;12.30;99.90;;;;;;5053886;28;20444;-81
2021/05/20 06:15:06;;;;;;;51.77;28.97;;;12.50;99.90;;;;;;5052868;28;20452;-80
2021/05/20 06:17:32;;;;;;;59.73;32.33;;;12.60;99.90;;;;;;5053294;28;20452;-81
2021/05/20 06:19:59;;;;;;;51.13;27.97;;;12.60;99.90;;;;;;5052228;28;20476;-80
2021/05/20 06:22:25;;;;;;;52.90;27.90;;;12.70;99.90;;;;;;5054709;28;20493;-81
2021/05/20 06:24:51;;;;;;;55.20;27.20;;;12.80;99.90;;;;;;5057574;28;20460;-81
2021/05/20 06:27:18;;;;;;;62.03;33.53;;;12.90;99.90;;;;;;5057376;28;20485;-81
2021/05/20 06:29:45;;;;;;;62.03;31.53;;;12.70;99.90;;;;;;5056392;28;21017;-81
2021/05/20 06:32:11;;;;;;;57.20;29.97;;;12.70;99.90;;;;;;5054776;28;20462;-82
2021/05/20 06:34:37;;;;;;;55.67;29.90;;;12.60;99.90;;;;;;5055873;28;20436;-82
2021/05/20 06:37:04;;;;;;;55.57;30.27;;;12.70;99.90;;;;;;5054287;28;20959;-81
2021/05/20 06:39:30;;;;;;;53.50;28.30;;;12.70;99.90;;;;;;5057475;28;20575;-82
2021/05/20 06:41:57;;;;;;;54.73;30.17;;;12.70;99.90;;;;;;5059981;28;20527;-81
2021/05/20 06:44:24;;;;;;;59.73;31.80;;;12.70;99.90;;;;;;5059903;28;20516;-80
2021/05/20 06:46:50;;;;;;;49.10;25.63;;;12.50;99.90;;;;;;5059172;28;20707;-81
2021/05/20 06:49:17;;;;;;;51.07;28.33;;;12.30;99.90;;;;;;5059945;28;20963;-81
2021/05/20 06:51:43;;;;;;;53.93;28.30;;;12.40;99.90;;;;;;5058246;28;20488;-81
2021/05/20 06:54:09;;;;;;;52.00;25.40;;;12.70;99.90;;;;;;5060898;28;20455;-82
2021/05/20 06:56:36;;;;;;;47.70;24.60;;;12.70;99.90;;;;;;5059320;28;20451;-81
2021/05/20 07:01:48;;;;;;;52.97;28.40;;;12.90;99.90;;;;;;5060554;28;20509;-81
2021/05/20 07:04:15;;;;;;;47.67;26.73;;;13.00;99.90;;;;;;5061245;28;20451;-81
2021/05/20 07:06:41;;;;;;;51.53;26.20;;;13.10;99.90;;;;;;5057434;28;20487;-83
2021/05/20 07:09:07;;;;;;;47.90;26.30;;;13.30;99.90;;;;;;5054000;28;20472;-83
2021/05/20 07:11:34;;;;;;;48.00;25.90;;;13.00;99.90;;;;;;5057734;28;20455;-82
2021/05/20 07:14:00;;;;;;;48.53;27.77;;;12.90;99.90;;;;;;5059488;28;20868;-80
2021/05/20 07:16:27;;;;;;;49.40;29.30;;;13.10;99.90;;;;;;5058721;28;20444;-82
2021/05/20 07:18:54;;;;;;;55.87;28.63;;;13.30;99.90;;;;;;5059371;28;20464;-83
2021/05/20 07:21:20;;;;;;;49.90;28.27;;;13.10;99.90;;;;;;5059798;28;20494;-83
2021/05/20 07:23:47;;;;;;;45.13;27.10;;;13.40;99.90;;;;;;5059053;28;20919;-81
2021/05/20 07:26:13;;;;;;;49.43;29.30;;;13.70;99.90;;;;;;5059810;28;20491;-81
2021/05/20 07:28:39;;;;;;;41.63;24.97;;;13.50;99.90;;;;;;5058951;28;20478;-82
2021/05/20 07:31:06;;;;;;;40.60;23.57;;;13.90;99.90;;;;;;5056892;28;20459;-82
2021/05/20 07:33:32;;;;;;;38.23;21.77;;;14.10;99.90;;;;;;5057599;28;20459;-80
2021/05/20 07:36:00;;;;;;;43.93;25.93;;;14.30;99.90;;;;;;5061400;28;20458;-80
2021/05/20 07:38:26;;;;;;;38.60;22.70;;;14.20;99.90;;;;;;5067612;28;20539;-82
2021/05/20 07:40:52;;;;;;;37.97;24.03;;;14.20;99.90;;;;;;5061397;28;20451;-83
2021/05/20 07:43:19;;;;;;;40.07;25.20;;;14.00;99.90;;;;;;5061456;28;20551;-82
2021/05/20 07:45:46;;;;;;;39.53;23.17;;;14.00;99.90;;;;;;5062167;28;20581;-83
2021/05/20 07:48:12;;;;;;;40.70;24.00;;;13.90;99.90;;;;;;5056933;28;20448;-80
2021/05/20 07:50:39;;;;;;;49.20;25.80;;;13.90;99.90;;;;;;5060957;28;20452;-81
2021/05/20 07:53:06;;;;;;;43.03;26.07;;;13.60;99.90;;;;;;5061472;28;20516;-81
2021/05/20 07:55:32;;;;;;;54.50;29.10;;;13.70;99.90;;;;;;5056268;28;20436;-82
2021/05/20 07:57:59;;;;;;;37.70;24.30;;;13.40;99.90;;;;;;5049133;28;20454;-81
2021/05/20 08:00:26;;;;;;;47.13;25.93;;;13.30;99.90;;;;;;5062138;28;20456;-81
2021/05/20 08:02:58;;;;;;;44.77;27.17;;;13.40;99.90;;;;;;5063515;28;20474;-80
2021/05/20 08:05:29;;;;;;;42.70;25.90;;;13.50;99.90;;;;;;5067112;28;20483;-81
2021/05/20 08:08:00;;;;;;;42.57;22.13;;;13.90;99.90;;;;;;5066915;28;20452;-81
2021/05/20 08:10:50;;;;;;;52.30;28.27;;;14.00;99.90;;;;;;5065771;28;20448;-82
2021/05/20 08:13:16;;;;;;;46.70;29.07;;;14.00;99.90;;;;;;5065188;28;20456;-82
2021/05/20 08:15:43;;;;;;;42.23;22.90;;;14.10;99.90;;;;;;5067875;28;20440;-82
2021/05/20 08:18:09;;;;;;;44.70;25.50;;;14.50;99.90;;;;;;5068289;28;20516;-81
2021/05/20 08:20:38;;;;;;;38.40;25.63;;;14.60;99.90;;;;;;5063235;28;20836;-81
2021/05/20 08:23:04;;;;;;;37.70;22.90;;;14.60;99.90;;;;;;5064060;28;20495;-82
2021/05/20 08:25:31;;;;;;;41.67;25.07;;;14.60;99.90;;;;;;5061717;28;20483;-82
2021/05/20 08:27:58;;;;;;;32.33;22.57;;;14.60;99.90;;;;;;5062571;28;20443;-83
2021/05/20 08:30:27;;;;;;;35.80;23.80;;;14.80;99.90;;;;;;5060183;28;20530;-82
2021/05/20 08:32:53;;;;;;;33.33;22.20;;;14.90;99.90;;;;;;5060655;28;20440;-82
2021/05/20 08:35:19;;;;;;;35.60;22.40;;;15.20;99.90;;;;;;5066224;28;20519;-83
2021/05/20 08:37:46;;;;;;;33.50;21.77;;;14.90;99.90;;;;;;5064548;28;20995;-83
2021/05/20 08:40:13;;;;;;;27.27;18.23;;;15.00;99.90;;;;;;5063345;28;20463;-83
2021/05/20 08:42:41;;;;;;;27.57;19.80;;;15.10;99.90;;;;;;5064269;28;20522;-83
2021/05/20 08:45:13;;;;;;;23.80;17.40;;;15.30;99.90;;;;;;5062978;28;20458;-83
2021/05/20 08:47:40;;;;;;;26.07;16.50;;;15.10;99.90;;;;;;5064857;28;20444;-82
2021/05/20 08:50:08;;;;;;;26.30;17.70;;;14.80;99.90;;;;;;5063284;28;20532;-82
2021/05/20 08:52:36;;;;;;;28.17;19.30;;;15.20;99.90;;;;;;5065169;28;20840;-83
2021/05/20 08:55:03;;;;;;;27.20;17.77;;;15.70;99.90;;;;;;5065937;28;21086;-83
2021/05/20 08:57:30;;;;;;;31.50;19.70;;;16.30;99.90;;;;;;5067561;28;20460;-84
2021/05/20 08:59:57;;;;;;;27.23;17.93;;;16.30;99.90;;;;;;5068396;28;20482;-84
2021/05/20 09:02:28;;;;;;;27.03;17.10;;;16.00;99.90;;;;;;5067467;28;20454;-83
2021/05/20 09:04:58;;;;;;;25.83;17.57;;;16.20;99.90;;;;;;5067418;28;20523;-82
2021/05/20 09:07:33;;;;;;;26.40;18.87;;;16.10;99.90;;;;;;5064018;28;20456;-82
2021/05/20 09:10:21;;;;;;;24.63;15.50;;;16.40;99.90;;;;;;5066108;28;20478;-82
2021/05/20 09:12:50;;;;;;;29.20;16.10;;;16.90;99.90;;;;;;5072700;28;20515;-82
2021/05/20 09:15:21;;;;;;;25.10;14.70;;;17.10;99.90;;;;;;5074202;28;20454;-80
2021/05/20 09:17:48;;;;;;;24.27;14.90;;;17.10;99.90;;;;;;5068359;28;20487;-82
2021/05/20 09:20:15;;;;;;;24.57;15.43;;;17.00;99.90;;;;;;5057216;28;20539;-82
2021/05/20 09:22:41;;;;;;;26.97;18.03;;;16.80;99.90;;;;;;5058027;28;20895;-81
2021/05/20 09:25:10;;;;;;;28.80;17.83;;;16.30;99.90;;;;;;5058477;28;20491;-81
2021/05/20 09:27:38;;;;;;;29.63;17.27;;;16.00;99.90;;;;;;5059213;28;21049;-84
2021/05/20 09:30:10;;;;;;;29.17;18.13;;;15.90;99.90;;;;;;5074808;28;20482;-83
2021/05/20 09:32:39;;;;;;;31.53;17.20;;;16.50;99.90;;;;;;5061030;28;20443;-81
2021/05/20 09:35:06;;;;;;;29.20;15.80;;;18.00;99.90;;;;;;5061925;28;20440;-85
2021/05/20 09:37:44;;;;;;;30.33;16.47;;;18.30;99.90;;;;;;5061351;28;20460;-84
2021/05/20 09:40:11;;;;;;;36.93;19.10;;;18.20;99.90;;;;;;5056774;28;20471;-82
2021/05/20 09:42:37;;;;;;;41.33;25.67;;;18.20;99.90;;;;;;5054602;28;20452;-81
2021/05/20 09:45:08;;;;;;;56.67;35.07;;;17.80;99.90;;;;;;5058331;28;20458;-82
2021/05/20 09:47:34;;;;;;;79.60;64.97;;;17.80;99.90;;;;;;5054278;28;20463;-80
2021/05/20 09:50:05;;;;;;;143.43;131.77;;;17.70;99.90;;;;;;5055665;28;20987;-81
2021/05/20 09:52:31;;;;;;;148.27;136.33;;;17.70;99.90;;;;;;5055028;28;20456;-82
2021/05/20 09:54:58;;;;;;;585.37;549.70;;;17.60;99.90;;;;;;5055322;28;20448;-83
2021/05/20 09:57:27;;;;;;;110.40;100.33;;;18.10;99.90;;;;;;5055344;28;20444;-82
2021/05/20 10:00:07;;;;;;;374.40;349.13;;;18.10;99.90;;;;;;5054586;28;21013;-85
2021/05/20 10:02:34;;;;;;;646.30;606.57;;;17.40;99.90;;;;;;5054317;28;20458;-82
2021/05/20 10:05:22;;;;;;;400.60;370.83;;;17.70;99.90;;;;;;5055447;28;20452;-81
2021/05/20 10:07:49;;;;;;;31.60;24.20;;;20.20;99.90;;;;;;5054978;28;20531;-82
2021/05/20 10:10:16;;;;;;;19.40;14.07;;;21.90;99.90;;;;;;5056743;28;20487;-83
2021/05/20 10:12:44;;;;;;;17.33;14.07;;;21.90;99.90;;;;;;5055171;28;20544;-82
2021/05/20 10:15:13;;;;;;;20.77;15.70;;;20.80;99.90;;;;;;5054332;28;20452;-82
2021/05/20 10:17:41;;;;;;;26.40;19.23;;;20.30;99.90;;;;;;5055048;28;20932;-82
2021/05/20 10:20:11;;;;;;;31.17;23.37;;;19.50;99.90;;;;;;5054623;28;20476;-82
2021/05/20 10:22:38;;;;;;;25.07;19.40;;;19.40;99.90;;;;;;5055349;28;20452;-82
2021/05/20 10:25:06;;;;;;;29.13;21.67;;;19.40;99.90;;;;;;5054065;28;20491;-82
2021/05/20 10:27:33;;;;;;;25.70;21.70;;;19.50;99.90;;;;;;5058344;28;20519;-83
2021/05/20 10:30:01;;;;;;;23.73;17.00;;;19.40;99.90;;;;;;5060367;28;20586;-83
2021/05/20 10:32:28;;;;;;;33.40;18.80;;;19.60;99.90;;;;;;5059046;28;20483;-82
2021/05/20 10:35:03;;;;;;;19.60;14.20;;;20.00;99.90;;;;;;5057575;28;20458;-84
2021/05/20 10:37:37;;;;;;;19.43;15.60;;;21.60;99.90;;;;;;5043352;28;20448;-82
2021/05/20 10:40:22;;;;;;;15.67;12.57;;;23.60;99.90;;;;;;5058048;28;20495;-82
2021/05/20 10:42:48;;;;;;;17.80;14.97;;;25.80;99.90;;;;;;5063011;28;20468;-82
2021/05/20 10:45:23;;;;;;;16.70;13.40;;;24.00;99.90;;;;;;5059143;28;20504;-85
2021/05/20 10:48:23;;;;;;;18.17;14.80;;;26.00;99.90;;;;;;5068891;28;20455;-83
2021/05/20 10:51:01;;;;;;;16.33;13.60;;;26.70;95.30;;;;;;5079215;23;20528;-78
2021/05/20 10:54:09;;;;;;;14.63;11.70;;;25.80;95.90;;;;;;5059041;28;20443;-81
2021/05/20 10:56:54;;;;;;;14.60;11.83;;;27.70;96.10;;;;;;5044443;28;20867;-84
2021/05/20 10:59:35;;;;;;;12.90;10.90;;;28.00;90.10;;;;;;5057724;28;20513;-83
2021/05/20 11:02:01;;;;;;;13.20;11.30;;;28.80;82.40;;;;;;5055813;28;20444;-80
2021/05/20 11:04:36;;;;;;;12.23;10.00;;;30.00;91.40;;;;;;5057605;28;20542;-83
2021/05/20 11:07:04;;;;;;;10.00;7.93;;;29.80;74.60;;;;;;5059194;28;21009;-83
2021/05/20 11:09:45;;;;;;;12.50;10.40;;;28.30;79.00;;;;;;5060380;28;20563;-81
2021/05/20 11:12:11;;;;;;;10.10;8.50;;;30.60;83.20;;;;;;5061341;28;20535;-83
2021/05/20 11:14:42;;;;;;;12.30;10.17;;;30.70;81.40;;;;;;5056928;28;20515;-83
2021/05/20 11:17:37;;;;;;;9.60;7.87;;;31.80;70.00;;;;;;5060935;28;20462;-84
2021/05/20 11:20:52;;;;;;;10.97;9.00;;;32.10;62.50;;;;;;5054783;28;20499;-83
2021/05/20 11:23:21;;;;;;;11.03;8.67;;;29.90;60.20;;;;;;5060650;28;20948;-83
2021/05/20 11:26:04;;;;;;;10.30;8.23;;;28.30;62.20;;;;;;5059691;28;20479;-83
2021/05/20 11:28:37;;;;;;;9.70;8.10;;;28.70;69.30;;;;;;5059976;28;20547;-83
2021/05/20 11:31:04;;;;;;;9.83;7.23;;;29.30;66.20;;;;;;5058895;28;20468;-83
2021/05/20 11:33:35;;;;;;;10.30;6.60;;;27.90;64.20;;;;;;5057998;28;20456;-83
2021/05/20 11:36:12;;;;;;;8.40;5.30;;;27.00;65.60;;;;;;5060798;28;20520;-82
2021/05/20 11:38:50;;;;;;;10.10;6.50;;;29.50;70.90;;;;;;5065441;28;20451;-83
2021/05/20 11:41:18;;;;;;;7.13;5.40;;;31.60;65.60;;;;;;5066313;28;20551;-83
2021/05/20 11:43:45;;;;;;;7.20;4.80;;;32.90;62.80;;;;;;5066237;28;20450;-84
2021/05/20 11:46:24;;;;;;;7.03;4.10;;;34.00;59.70;;;;;;5058569;28;20510;-84
2021/05/20 11:49:02;;;;;;;6.80;3.20;;;34.60;54.00;;;;;;5066675;28;20549;-85
2021/05/20 11:51:48;;;;;;;4.90;2.50;;;33.70;51.70;;;;;;5066784;28;21407;-84
2021/05/20 11:54:16;;;;;;;7.80;4.20;;;31.60;54.10;;;;;;5060429;28;20535;-84
2021/05/20 11:56:47;;;;;;;6.60;3.70;;;29.60;54.80;;;;;;5062256;28;20454;-84
2021/05/20 11:59:16;;;;;;;7.73;4.80;;;30.20;53.70;;;;;;5061161;28;20447;-84
2021/05/20 12:01:45;;;;;;;6.43;3.73;;;30.90;54.50;;;;;;5060500;28;20451;-84
2021/05/20 12:04:12;;;;;;;8.07;4.00;;;31.60;50.80;;;;;;5062068;28;20469;-84
2021/05/20 12:06:39;;;;;;;6.73;3.60;;;31.10;52.40;;;;;;5057381;28;20501;-86
2021/05/20 12:09:13;;;;;;;5.50;3.30;;;31.70;56.00;;;;;;5068983;28;20499;-86
2021/05/20 12:11:41;;;;;;;6.10;3.03;;;31.70;52.00;;;;;;5056495;28;20464;-86
2021/05/20 12:14:39;;;;;;;6.10;2.93;;;31.70;54.00;;;;;;5057790;28;20532;-86
2021/05/20 12:17:11;;;;;;;5.47;3.63;;;32.30;52.50;;;;;;4976075;28;20447;-86
2021/05/20 12:19:39;;;;;;;7.00;3.30;;;33.80;48.20;;;;;;5042183;28;20487;-85
2021/05/20 12:22:12;;;;;;;5.20;2.93;;;33.50;48.70;;;;;;5057646;28;20431;-85
2021/05/20 12:24:41;;;;;;;5.50;3.50;;;32.90;50.00;;;;;;5057755;28;21034;-85
2021/05/20 12:27:15;;;;;;;6.30;4.07;;;32.70;49.10;;;;;;5058215;28;20490;-86
2021/05/20 12:29:44;;;;;;;5.80;3.57;;;31.10;49.20;;;;;;5057332;28;20490;-85
2021/05/20 12:32:44;;;;;;;6.50;3.47;;;32.20;52.70;;;;;;5056021;28;20455;-85
2021/05/20 12:35:19;;;;;;;5.97;4.27;;;33.30;49.80;;;;;;5037085;28;20952;-85
2021/05/20 12:37:48;;;;;;;6.90;4.30;;;33.50;50.00;;;;;;5047323;28;20443;-85
2021/05/20 12:40:17;;;;;;;6.33;3.93;;;32.10;45.60;;;;;;5057473;28;20521;-85
2021/05/20 12:42:43;;;;;;;5.30;3.10;;;30.10;48.40;;;;;;5056637;28;20511;-85